sensor_id;sensor_type;location;lat;lon;timestamp;P1;durP1;ratioP1;P2;durP2;ratioP2
65071;SDS011;51663;52.310;17.016;2022-12-18T00:02:55;73.47;;;26.80;;
65071;SDS011;51663;52.310;17.016;2022-12-18T00:05:57;62.30;;;25.60;;
65071;SDS011;51663;52.310;17.016;2022-12-18T00:09:00;67.37;;;23.93;;
65071;SDS011;51663;52.310;17.016;2022-12-18T00:12:03;64.63;;;23.43;;
65071;SDS011;51663;52.310;17.016;2022-12-18T00:15:16;61.13;;;23.97;;
65071;SDS011;51663;52.310;17.016;2022-12-18T00:18:18;66.70;;;23.60;;
65071;SDS011;51663;52.310;17.016;2022-12-18T00:21:21;64.67;;;24.67;;
65071;SDS011;51663;52.310;17.016;2022-12-18T00:24:24;73.40;;;25.43;;
65071;SDS011;51663;52.310;17.016;2022-12-18T00:27:26;70.03;;;26.10;;
65071;SDS011;51663;52.310;17.016;2022-12-18T00:30:28;68.03;;;23.97;;
65071;SDS011;51663;52.310;17.016;2022-12-18T00:33:31;71.17;;;24.73;;
65071;SDS011;51663;52.310;17.016;2022-12-18T00:36:33;70.67;;;24.57;;
65071;SDS011;51663;52.310;17.016;2022-12-18T00:39:36;65.27;;;21.40;;
65071;SDS011;51663;52.310;17.016;2022-12-18T00:42:38;61.10;;;22.93;;
65071;SDS011;51663;52.310;17.016;2022-12-18T00:45:58;79.73;;;25.37;;
65071;SDS011;51663;52.310;17.016;2022-12-18T00:49:01;70.77;;;23.40;;
65071;SDS011;51663;52.310;17.016;2022-12-18T00:52:03;68.70;;;24.67;;
65071;SDS011;51663;52.310;17.016;2022-12-18T00:55:05;66.90;;;22.97;;
65071;SDS011;51663;52.310;17.016;2022-12-18T00:58:09;68.57;;;22.90;;
65071;SDS011;51663;52.310;17.016;2022-12-18T01:01:11;64.37;;;23.13;;
65071;SDS011;51663;52.310;17.016;2022-12-18T01:04:14;62.43;;;23.93;;
65071;SDS011;51663;52.310;17.016;2022-12-18T01:07:16;66.67;;;23.70;;
65071;SDS011;51663;52.310;17.016;2022-12-18T01:10:19;64.20;;;23.80;;
65071;SDS011;51663;52.310;17.016;2022-12-18T01:13:21;64.10;;;22.87;;
65071;SDS011;51663;52.310;17.016;2022-12-18T01:16:23;63.37;;;21.90;;
65071;SDS011;51663;52.310;17.016;2022-12-18T01:19:25;62.13;;;22.47;;
65071;SDS011;51663;52.310;17.016;2022-12-18T01:22:27;59.33;;;22.73;;
65071;SDS011;51663;52.310;17.016;2022-12-18T01:25:29;60.67;;;23.63;;
65071;SDS011;51663;52.310;17.016;2022-12-18T01:28:31;68.83;;;23.70;;
65071;SDS011;51663;52.310;17.016;2022-12-18T01:31:34;61.33;;;23.80;;
65071;SDS011;51663;52.310;17.016;2022-12-18T01:34:36;57.47;;;21.67;;
65071;SDS011;51663;52.310;17.016;2022-12-18T01:37:38;58.47;;;21.47;;
65071;SDS011;51663;52.310;17.016;2022-12-18T01:40:40;52.93;;;19.73;;
65071;SDS011;51663;52.310;17.016;2022-12-18T01:43:51;56.23;;;20.57;;
65071;SDS011;51663;52.310;17.016;2022-12-18T01:46:55;51.03;;;19.07;;
65071;SDS011;51663;52.310;17.016;2022-12-18T01:49:58;54.60;;;20.17;;
65071;SDS011;51663;52.310;17.016;2022-12-18T01:56:07;53.77;;;20.23;;
65071;SDS011;51663;52.310;17.016;2022-12-18T01:59:13;66.20;;;20.33;;
65071;SDS011;51663;52.310;17.016;2022-12-18T02:02:16;54.23;;;21.40;;
65071;SDS011;51663;52.310;17.016;2022-12-18T02:06:05;57.00;;;21.03;;
65071;SDS011;51663;52.310;17.016;2022-12-18T02:09:17;56.67;;;21.40;;
65071;SDS011;51663;52.310;17.016;2022-12-18T02:12:42;57.60;;;21.20;;
65071;SDS011;51663;52.310;17.016;2022-12-18T02:15:51;53.10;;;20.10;;
65071;SDS011;51663;52.310;17.016;2022-12-18T02:18:57;57.43;;;20.30;;
65071;SDS011;51663;52.310;17.016;2022-12-18T02:25:33;59.77;;;21.07;;
65071;SDS011;51663;52.310;17.016;2022-12-18T02:31:52;61.93;;;20.87;;
65071;SDS011;51663;52.310;17.016;2022-12-18T02:34:57;57.40;;;21.00;;
65071;SDS011;51663;52.310;17.016;2022-12-18T02:38:01;60.67;;;21.20;;
65071;SDS011;51663;52.310;17.016;2022-12-18T02:41:05;64.90;;;22.83;;
65071;SDS011;51663;52.310;17.016;2022-12-18T02:44:09;57.60;;;20.97;;
65071;SDS011;51663;52.310;17.016;2022-12-18T02:47:13;67.23;;;23.00;;
65071;SDS011;51663;52.310;17.016;2022-12-18T02:50:22;65.60;;;22.60;;
65071;SDS011;51663;52.310;17.016;2022-12-18T02:56:50;59.63;;;22.23;;
65071;SDS011;51663;52.310;17.016;2022-12-18T03:00:01;58.73;;;21.13;;
65071;SDS011;51663;52.310;17.016;2022-12-18T03:03:22;59.90;;;21.60;;
65071;SDS011;51663;52.310;17.016;2022-12-18T03:06:38;57.43;;;22.37;;
65071;SDS011;51663;52.310;17.016;2022-12-18T03:09:45;60.53;;;21.67;;
65071;SDS011;51663;52.310;17.016;2022-12-18T03:12:52;55.00;;;21.30;;
65071;SDS011;51663;52.310;17.016;2022-12-18T03:16:01;57.37;;;21.03;;
65071;SDS011;51663;52.310;17.016;2022-12-18T03:19:16;62.23;;;22.00;;
65071;SDS011;51663;52.310;17.016;2022-12-18T03:22:23;65.70;;;23.83;;
65071;SDS011;51663;52.310;17.016;2022-12-18T03:25:28;67.97;;;24.03;;
65071;SDS011;51663;52.310;17.016;2022-12-18T03:28:33;68.87;;;23.47;;
65071;SDS011;51663;52.310;17.016;2022-12-18T03:31:40;72.40;;;25.33;;
65071;SDS011;51663;52.310;17.016;2022-12-18T03:34:47;81.17;;;27.23;;
65071;SDS011;51663;52.310;17.016;2022-12-18T03:37:52;77.13;;;26.40;;
65071;SDS011;51663;52.310;17.016;2022-12-18T03:47:57;73.47;;;25.27;;
65071;SDS011;51663;52.310;17.016;2022-12-18T03:51:06;81.93;;;25.53;;
65071;SDS011;51663;52.310;17.016;2022-12-18T03:54:13;74.27;;;25.27;;
65071;SDS011;51663;52.310;17.016;2022-12-18T03:57:17;80.40;;;25.43;;
65071;SDS011;51663;52.310;17.016;2022-12-18T04:00:22;73.90;;;25.60;;
65071;SDS011;51663;52.310;17.016;2022-12-18T04:03:24;74.70;;;25.90;;
65071;SDS011;51663;52.310;17.016;2022-12-18T04:06:28;75.57;;;25.97;;
65071;SDS011;51663;52.310;17.016;2022-12-18T04:09:31;77.07;;;25.90;;
65071;SDS011;51663;52.310;17.016;2022-12-18T04:12:36;73.13;;;24.73;;
65071;SDS011;51663;52.310;17.016;2022-12-18T04:15:38;80.30;;;25.47;;
65071;SDS011;51663;52.310;17.016;2022-12-18T04:18:41;75.40;;;26.10;;
65071;SDS011;51663;52.310;17.016;2022-12-18T04:21:43;76.20;;;24.63;;
65071;SDS011;51663;52.310;17.016;2022-12-18T04:24:46;75.80;;;25.40;;
65071;SDS011;51663;52.310;17.016;2022-12-18T04:27:47;73.30;;;25.23;;
65071;SDS011;51663;52.310;17.016;2022-12-18T04:30:50;79.50;;;25.43;;
65071;SDS011;51663;52.310;17.016;2022-12-18T04:33:52;75.00;;;24.33;;
65071;SDS011;51663;52.310;17.016;2022-12-18T04:36:54;75.27;;;24.63;;
65071;SDS011;51663;52.310;17.016;2022-12-18T04:39:56;80.93;;;29.00;;
65071;SDS011;51663;52.310;17.016;2022-12-18T04:42:58;77.77;;;25.20;;
65071;SDS011;51663;52.310;17.016;2022-12-18T04:46:06;68.70;;;23.83;;
65071;SDS011;51663;52.310;17.016;2022-12-18T04:49:10;66.83;;;23.67;;
65071;SDS011;51663;52.310;17.016;2022-12-18T04:52:12;66.80;;;21.93;;
65071;SDS011;51663;52.310;17.016;2022-12-18T04:55:14;70.80;;;22.73;;
65071;SDS011;51663;52.310;17.016;2022-12-18T04:58:16;63.60;;;22.60;;
65071;SDS011;51663;52.310;17.016;2022-12-18T05:01:18;66.27;;;21.43;;
65071;SDS011;51663;52.310;17.016;2022-12-18T05:04:20;69.40;;;22.83;;
65071;SDS011;51663;52.310;17.016;2022-12-18T05:07:22;70.90;;;23.00;;
65071;SDS011;51663;52.310;17.016;2022-12-18T05:10:25;69.90;;;22.90;;
65071;SDS011;51663;52.310;17.016;2022-12-18T05:13:27;70.27;;;23.13;;
65071;SDS011;51663;52.310;17.016;2022-12-18T05:16:29;72.17;;;23.90;;
65071;SDS011;51663;52.310;17.016;2022-12-18T05:19:32;68.77;;;23.07;;
65071;SDS011;51663;52.310;17.016;2022-12-18T05:22:34;68.40;;;25.27;;
65071;SDS011;51663;52.310;17.016;2022-12-18T05:25:36;71.63;;;23.80;;
65071;SDS011;51663;52.310;17.016;2022-12-18T05:28:38;81.70;;;25.67;;
65071;SDS011;51663;52.310;17.016;2022-12-18T05:31:40;78.80;;;24.60;;
65071;SDS011;51663;52.310;17.016;2022-12-18T05:34:43;69.03;;;24.60;;
65071;SDS011;51663;52.310;17.016;2022-12-18T05:37:46;72.93;;;24.80;;
65071;SDS011;51663;52.310;17.016;2022-12-18T05:40:48;74.63;;;25.60;;
65071;SDS011;51663;52.310;17.016;2022-12-18T05:43:51;72.77;;;24.00;;
65071;SDS011;51663;52.310;17.016;2022-12-18T05:46:53;81.03;;;25.57;;
65071;SDS011;51663;52.310;17.016;2022-12-18T05:49:55;74.87;;;26.03;;
65071;SDS011;51663;52.310;17.016;2022-12-18T05:52:57;80.17;;;25.87;;
65071;SDS011;51663;52.310;17.016;2022-12-18T05:56:00;86.90;;;26.43;;
65071;SDS011;51663;52.310;17.016;2022-12-18T05:59:04;80.47;;;26.00;;
65071;SDS011;51663;52.310;17.016;2022-12-18T06:02:06;85.23;;;27.77;;
65071;SDS011;51663;52.310;17.016;2022-12-18T06:05:08;88.37;;;28.30;;
65071;SDS011;51663;52.310;17.016;2022-12-18T06:08:11;104.17;;;28.63;;
65071;SDS011;51663;52.310;17.016;2022-12-18T06:11:16;85.87;;;28.50;;
65071;SDS011;51663;52.310;17.016;2022-12-18T06:14:20;79.33;;;26.43;;
65071;SDS011;51663;52.310;17.016;2022-12-18T06:17:22;92.67;;;29.73;;
65071;SDS011;51663;52.310;17.016;2022-12-18T06:20:28;89.20;;;29.43;;
65071;SDS011;51663;52.310;17.016;2022-12-18T06:23:34;90.90;;;28.53;;
65071;SDS011;51663;52.310;17.016;2022-12-18T06:26:38;91.00;;;28.17;;
65071;SDS011;51663;52.310;17.016;2022-12-18T06:29:40;92.63;;;30.07;;
65071;SDS011;51663;52.310;17.016;2022-12-18T06:32:42;87.97;;;29.83;;
65071;SDS011;51663;52.310;17.016;2022-12-18T06:35:46;105.53;;;35.20;;
65071;SDS011;51663;52.310;17.016;2022-12-18T06:38:48;92.07;;;31.20;;
65071;SDS011;51663;52.310;17.016;2022-12-18T06:41:50;91.30;;;30.37;;
65071;SDS011;51663;52.310;17.016;2022-12-18T06:44:52;93.33;;;30.10;;
65071;SDS011;51663;52.310;17.016;2022-12-18T06:47:54;82.97;;;28.10;;
65071;SDS011;51663;52.310;17.016;2022-12-18T06:50:58;96.60;;;30.40;;
65071;SDS011;51663;52.310;17.016;2022-12-18T06:54:00;104.57;;;31.70;;
65071;SDS011;51663;52.310;17.016;2022-12-18T06:57:02;85.07;;;28.63;;
65071;SDS011;51663;52.310;17.016;2022-12-18T07:00:05;86.90;;;27.57;;
65071;SDS011;51663;52.310;17.016;2022-12-18T07:03:08;79.93;;;26.20;;
65071;SDS011;51663;52.310;17.016;2022-12-18T07:06:13;81.67;;;26.33;;
65071;SDS011;51663;52.310;17.016;2022-12-18T07:09:17;71.70;;;25.73;;
65071;SDS011;51663;52.310;17.016;2022-12-18T07:12:19;75.57;;;24.03;;
65071;SDS011;51663;52.310;17.016;2022-12-18T07:15:21;69.67;;;23.63;;
65071;SDS011;51663;52.310;17.016;2022-12-18T07:18:23;71.07;;;24.47;;
65071;SDS011;51663;52.310;17.016;2022-12-18T07:21:25;59.27;;;23.70;;
65071;SDS011;51663;52.310;17.016;2022-12-18T07:24:27;69.40;;;24.27;;
65071;SDS011;51663;52.310;17.016;2022-12-18T07:27:29;59.87;;;21.43;;
65071;SDS011;51663;52.310;17.016;2022-12-18T07:30:31;67.33;;;23.03;;
65071;SDS011;51663;52.310;17.016;2022-12-18T07:33:34;68.17;;;24.23;;
65071;SDS011;51663;52.310;17.016;2022-12-18T07:36:37;76.53;;;26.87;;
65071;SDS011;51663;52.310;17.016;2022-12-18T07:39:39;72.40;;;24.30;;
65071;SDS011;51663;52.310;17.016;2022-12-18T07:42:41;77.40;;;27.10;;
65071;SDS011;51663;52.310;17.016;2022-12-18T07:45:43;71.23;;;23.23;;
65071;SDS011;51663;52.310;17.016;2022-12-18T07:48:45;60.33;;;23.27;;
65071;SDS011;51663;52.310;17.016;2022-12-18T07:51:50;65.20;;;21.93;;
65071;SDS011;51663;52.310;17.016;2022-12-18T07:54:54;73.07;;;23.60;;
65071;SDS011;51663;52.310;17.016;2022-12-18T07:58:00;69.33;;;23.43;;
65071;SDS011;51663;52.310;17.016;2022-12-18T08:01:03;66.50;;;22.97;;
65071;SDS011;51663;52.310;17.016;2022-12-18T08:04:12;57.57;;;21.20;;
65071;SDS011;51663;52.310;17.016;2022-12-18T08:07:14;58.77;;;19.97;;
65071;SDS011;51663;52.310;17.016;2022-12-18T08:10:16;60.80;;;23.17;;
65071;SDS011;51663;52.310;17.016;2022-12-18T08:13:18;63.57;;;21.50;;
65071;SDS011;51663;52.310;17.016;2022-12-18T08:16:21;65.37;;;23.43;;
65071;SDS011;51663;52.310;17.016;2022-12-18T08:19:23;64.20;;;22.03;;
65071;SDS011;51663;52.310;17.016;2022-12-18T08:22:26;57.20;;;20.43;;
65071;SDS011;51663;52.310;17.016;2022-12-18T08:25:28;58.13;;;22.97;;
65071;SDS011;51663;52.310;17.016;2022-12-18T08:28:30;59.63;;;21.10;;
65071;SDS011;51663;52.310;17.016;2022-12-18T08:31:32;65.77;;;22.87;;
65071;SDS011;51663;52.310;17.016;2022-12-18T08:34:34;56.57;;;20.60;;
65071;SDS011;51663;52.310;17.016;2022-12-18T08:37:38;65.60;;;23.33;;
65071;SDS011;51663;52.310;17.016;2022-12-18T08:40:40;62.53;;;22.93;;
65071;SDS011;51663;52.310;17.016;2022-12-18T08:43:42;66.57;;;24.43;;
65071;SDS011;51663;52.310;17.016;2022-12-18T08:47:04;69.33;;;25.83;;
65071;SDS011;51663;52.310;17.016;2022-12-18T08:50:06;64.47;;;24.33;;
65071;SDS011;51663;52.310;17.016;2022-12-18T08:53:09;76.57;;;28.97;;
65071;SDS011;51663;52.310;17.016;2022-12-18T08:56:11;64.73;;;22.73;;
65071;SDS011;51663;52.310;17.016;2022-12-18T08:59:14;68.93;;;24.33;;
65071;SDS011;51663;52.310;17.016;2022-12-18T09:02:20;82.37;;;30.37;;
65071;SDS011;51663;52.310;17.016;2022-12-18T09:05:23;104.97;;;41.03;;
65071;SDS011;51663;52.310;17.016;2022-12-18T09:08:25;59.27;;;22.43;;
65071;SDS011;51663;52.310;17.016;2022-12-18T09:11:28;60.53;;;22.03;;
65071;SDS011;51663;52.310;17.016;2022-12-18T09:14:30;61.63;;;24.23;;
65071;SDS011;51663;52.310;17.016;2022-12-18T09:17:32;56.27;;;22.83;;
65071;SDS011;51663;52.310;17.016;2022-12-18T09:20:35;54.47;;;21.40;;
65071;SDS011;51663;52.310;17.016;2022-12-18T09:23:38;58.77;;;22.17;;
65071;SDS011;51663;52.310;17.016;2022-12-18T09:26:40;57.47;;;20.70;;
65071;SDS011;51663;52.310;17.016;2022-12-18T09:29:44;61.20;;;22.93;;
65071;SDS011;51663;52.310;17.016;2022-12-18T09:32:46;55.00;;;21.03;;
65071;SDS011;51663;52.310;17.016;2022-12-18T09:35:48;51.33;;;20.53;;
65071;SDS011;51663;52.310;17.016;2022-12-18T09:38:50;48.97;;;21.23;;
65071;SDS011;51663;52.310;17.016;2022-12-18T09:41:53;59.23;;;24.57;;
65071;SDS011;51663;52.310;17.016;2022-12-18T09:44:58;49.00;;;20.57;;
65071;SDS011;51663;52.310;17.016;2022-12-18T09:48:01;56.67;;;22.90;;
65071;SDS011;51663;52.310;17.016;2022-12-18T09:51:08;60.83;;;23.87;;
65071;SDS011;51663;52.310;17.016;2022-12-18T09:54:32;60.17;;;23.93;;
65071;SDS011;51663;52.310;17.016;2022-12-18T09:57:45;66.30;;;26.77;;
65071;SDS011;51663;52.310;17.016;2022-12-18T10:00:53;61.70;;;23.03;;
65071;SDS011;51663;52.310;17.016;2022-12-18T10:03:55;56.97;;;23.77;;
65071;SDS011;51663;52.310;17.016;2022-12-18T10:07:03;57.43;;;24.50;;
65071;SDS011;51663;52.310;17.016;2022-12-18T10:10:22;50.63;;;22.63;;
65071;SDS011;51663;52.310;17.016;2022-12-18T10:17:02;54.20;;;24.23;;
65071;SDS011;51663;52.310;17.016;2022-12-18T10:27:23;48.57;;;21.80;;
65071;SDS011;51663;52.310;17.016;2022-12-18T10:30:27;50.80;;;22.70;;
65071;SDS011;51663;52.310;17.016;2022-12-18T10:33:30;54.67;;;25.37;;
65071;SDS011;51663;52.310;17.016;2022-12-18T10:36:33;67.60;;;25.53;;
65071;SDS011;51663;52.310;17.016;2022-12-18T10:39:37;48.80;;;22.87;;
65071;SDS011;51663;52.310;17.016;2022-12-18T10:42:39;41.13;;;20.73;;
65071;SDS011;51663;52.310;17.016;2022-12-18T10:45:49;48.87;;;22.67;;
65071;SDS011;51663;52.310;17.016;2022-12-18T10:49:23;46.47;;;22.23;;
65071;SDS011;51663;52.310;17.016;2022-12-18T10:52:29;46.83;;;22.07;;
65071;SDS011;51663;52.310;17.016;2022-12-18T10:55:32;41.93;;;20.50;;
65071;SDS011;51663;52.310;17.016;2022-12-18T10:58:38;43.40;;;20.77;;
65071;SDS011;51663;52.310;17.016;2022-12-18T11:01:45;43.50;;;20.90;;
65071;SDS011;51663;52.310;17.016;2022-12-18T11:04:56;40.93;;;19.37;;
65071;SDS011;51663;52.310;17.016;2022-12-18T11:07:59;37.97;;;18.90;;
65071;SDS011;51663;52.310;17.016;2022-12-18T11:11:02;41.67;;;19.87;;
65071;SDS011;51663;52.310;17.016;2022-12-18T11:14:18;40.23;;;19.47;;
65071;SDS011;51663;52.310;17.016;2022-12-18T11:17:35;38.93;;;18.27;;
65071;SDS011;51663;52.310;17.016;2022-12-18T11:20:37;43.10;;;19.87;;
65071;SDS011;51663;52.310;17.016;2022-12-18T11:23:46;45.37;;;19.33;;
65071;SDS011;51663;52.310;17.016;2022-12-18T11:26:52;45.77;;;21.53;;
65071;SDS011;51663;52.310;17.016;2022-12-18T11:30:13;49.60;;;23.77;;
65071;SDS011;51663;52.310;17.016;2022-12-18T11:33:24;46.00;;;21.93;;
65071;SDS011;51663;52.310;17.016;2022-12-18T11:36:36;46.47;;;21.50;;
65071;SDS011;51663;52.310;17.016;2022-12-18T11:39:55;48.13;;;21.30;;
65071;SDS011;51663;52.310;17.016;2022-12-18T11:47:00;44.23;;;20.83;;
65071;SDS011;51663;52.310;17.016;2022-12-18T11:50:14;43.60;;;20.50;;
65071;SDS011;51663;52.310;17.016;2022-12-18T11:53:20;47.97;;;21.63;;
65071;SDS011;51663;52.310;17.016;2022-12-18T12:13:07;56.90;;;25.83;;
65071;SDS011;51663;52.310;17.016;2022-12-18T12:36:03;63.70;;;28.40;;
65071;SDS011;51663;52.310;17.016;2022-12-18T12:39:30;64.10;;;28.13;;
65071;SDS011;51663;52.310;17.016;2022-12-18T12:42:39;72.00;;;29.97;;
65071;SDS011;51663;52.310;17.016;2022-12-18T12:46:05;65.97;;;29.47;;
65071;SDS011;51663;52.310;17.016;2022-12-18T12:49:24;66.73;;;31.70;;
65071;SDS011;51663;52.310;17.016;2022-12-18T12:52:35;79.13;;;33.60;;
65071;SDS011;51663;52.310;17.016;2022-12-18T12:55:43;75.57;;;34.90;;
65071;SDS011;51663;52.310;17.016;2022-12-18T13:05:31;75.03;;;32.80;;
65071;SDS011;51663;52.310;17.016;2022-12-18T13:08:56;71.23;;;32.50;;
65071;SDS011;51663;52.310;17.016;2022-12-18T13:12:03;75.47;;;32.70;;
65071;SDS011;51663;52.310;17.016;2022-12-18T13:19:18;65.60;;;29.63;;
65071;SDS011;51663;52.310;17.016;2022-12-18T13:22:28;61.77;;;28.63;;
65071;SDS011;51663;52.310;17.016;2022-12-18T13:25:36;60.10;;;28.00;;
65071;SDS011;51663;52.310;17.016;2022-12-18T13:41:42;60.63;;;26.13;;
65071;SDS011;51663;52.310;17.016;2022-12-18T13:44:46;55.00;;;25.87;;
65071;SDS011;51663;52.310;17.016;2022-12-18T13:47:49;54.47;;;26.57;;
65071;SDS011;51663;52.310;17.016;2022-12-18T13:51:01;49.00;;;24.60;;
65071;SDS011;51663;52.310;17.016;2022-12-18T13:57:40;50.23;;;23.27;;
65071;SDS011;51663;52.310;17.016;2022-12-18T14:00:43;54.33;;;24.03;;
65071;SDS011;51663;52.310;17.016;2022-12-18T14:03:47;52.27;;;22.57;;
65071;SDS011;51663;52.310;17.016;2022-12-18T14:06:55;60.27;;;25.30;;
65071;SDS011;51663;52.310;17.016;2022-12-18T14:10:11;59.43;;;25.10;;
65071;SDS011;51663;52.310;17.016;2022-12-18T14:13:37;63.63;;;25.87;;
65071;SDS011;51663;52.310;17.016;2022-12-18T14:16:43;67.80;;;27.33;;
65071;SDS011;51663;52.310;17.016;2022-12-18T14:19:48;60.93;;;27.00;;
65071;SDS011;51663;52.310;17.016;2022-12-18T14:22:52;59.87;;;24.93;;
65071;SDS011;51663;52.310;17.016;2022-12-18T14:25:54;60.83;;;25.47;;
65071;SDS011;51663;52.310;17.016;2022-12-18T14:32:27;58.93;;;25.47;;
65071;SDS011;51663;52.310;17.016;2022-12-18T14:35:30;60.27;;;26.40;;
65071;SDS011;51663;52.310;17.016;2022-12-18T14:38:36;56.83;;;25.60;;
65071;SDS011;51663;52.310;17.016;2022-12-18T14:41:41;58.60;;;26.43;;
65071;SDS011;51663;52.310;17.016;2022-12-18T14:44:43;63.27;;;26.70;;
65071;SDS011;51663;52.310;17.016;2022-12-18T14:48:06;59.43;;;26.20;;
65071;SDS011;51663;52.310;17.016;2022-12-18T14:51:30;61.40;;;27.37;;
65071;SDS011;51663;52.310;17.016;2022-12-18T14:54:34;59.43;;;26.60;;
65071;SDS011;51663;52.310;17.016;2022-12-18T14:57:38;63.47;;;26.07;;
65071;SDS011;51663;52.310;17.016;2022-12-18T15:00:43;63.03;;;26.73;;
65071;SDS011;51663;52.310;17.016;2022-12-18T15:03:45;62.77;;;27.77;;
65071;SDS011;51663;52.310;17.016;2022-12-18T15:06:47;68.83;;;29.03;;
65071;SDS011;51663;52.310;17.016;2022-12-18T15:13:21;60.93;;;25.83;;
65071;SDS011;51663;52.310;17.016;2022-12-18T15:16:26;59.37;;;25.63;;
65071;SDS011;51663;52.310;17.016;2022-12-18T15:19:35;52.77;;;24.57;;
65071;SDS011;51663;52.310;17.016;2022-12-18T15:22:41;55.43;;;24.87;;
65071;SDS011;51663;52.310;17.016;2022-12-18T15:25:43;60.57;;;25.27;;
65071;SDS011;51663;52.310;17.016;2022-12-18T15:28:47;62.03;;;25.47;;
65071;SDS011;51663;52.310;17.016;2022-12-18T15:31:59;61.33;;;24.70;;
65071;SDS011;51663;52.310;17.016;2022-12-18T15:35:22;71.77;;;29.83;;
65071;SDS011;51663;52.310;17.016;2022-12-18T15:38:26;65.63;;;29.53;;
65071;SDS011;51663;52.310;17.016;2022-12-18T15:41:30;65.23;;;28.17;;
65071;SDS011;51663;52.310;17.016;2022-12-18T15:44:36;62.73;;;25.60;;
65071;SDS011;51663;52.310;17.016;2022-12-18T15:47:39;60.03;;;25.90;;
65071;SDS011;51663;52.310;17.016;2022-12-18T15:50:41;58.80;;;24.33;;
65071;SDS011;51663;52.310;17.016;2022-12-18T15:53:43;63.77;;;25.77;;
65071;SDS011;51663;52.310;17.016;2022-12-18T15:56:46;67.23;;;26.60;;
65071;SDS011;51663;52.310;17.016;2022-12-18T16:00:11;63.47;;;28.73;;
65071;SDS011;51663;52.310;17.016;2022-12-18T16:03:13;67.00;;;28.93;;
65071;SDS011;51663;52.310;17.016;2022-12-18T16:06:16;79.23;;;31.30;;
65071;SDS011;51663;52.310;17.016;2022-12-18T16:09:18;73.07;;;31.73;;
65071;SDS011;51663;52.310;17.016;2022-12-18T16:12:26;79.80;;;32.40;;
65071;SDS011;51663;52.310;17.016;2022-12-18T16:15:28;76.50;;;33.63;;
65071;SDS011;51663;52.310;17.016;2022-12-18T16:18:31;81.73;;;33.73;;
65071;SDS011;51663;52.310;17.016;2022-12-18T16:21:33;83.43;;;35.27;;
65071;SDS011;51663;52.310;17.016;2022-12-18T16:24:35;88.90;;;35.90;;
65071;SDS011;51663;52.310;17.016;2022-12-18T16:27:37;79.40;;;34.20;;
65071;SDS011;51663;52.310;17.016;2022-12-18T16:30:39;83.23;;;35.90;;
65071;SDS011;51663;52.310;17.016;2022-12-18T16:33:41;89.40;;;38.03;;
65071;SDS011;51663;52.310;17.016;2022-12-18T16:36:44;85.73;;;35.73;;
65071;SDS011;51663;52.310;17.016;2022-12-18T16:39:46;85.50;;;35.80;;
65071;SDS011;51663;52.310;17.016;2022-12-18T16:42:49;87.67;;;37.90;;
65071;SDS011;51663;52.310;17.016;2022-12-18T16:45:51;87.40;;;35.80;;
65071;SDS011;51663;52.310;17.016;2022-12-18T16:48:53;72.60;;;30.93;;
65071;SDS011;51663;52.310;17.016;2022-12-18T16:51:55;76.80;;;32.90;;
65071;SDS011;51663;52.310;17.016;2022-12-18T16:54:58;68.30;;;30.87;;
65071;SDS011;51663;52.310;17.016;2022-12-18T16:58:00;74.27;;;30.93;;
65071;SDS011;51663;52.310;17.016;2022-12-18T17:01:06;88.63;;;35.10;;
65071;SDS011;51663;52.310;17.016;2022-12-18T17:04:09;80.50;;;34.20;;
65071;SDS011;51663;52.310;17.016;2022-12-18T17:07:12;79.80;;;33.43;;
65071;SDS011;51663;52.310;17.016;2022-12-18T17:10:14;78.20;;;32.37;;
65071;SDS011;51663;52.310;17.016;2022-12-18T17:13:17;75.70;;;31.03;;
65071;SDS011;51663;52.310;17.016;2022-12-18T17:16:25;73.30;;;30.50;;
65071;SDS011;51663;52.310;17.016;2022-12-18T17:19:28;75.30;;;30.17;;
65071;SDS011;51663;52.310;17.016;2022-12-18T17:22:31;83.87;;;31.87;;
65071;SDS011;51663;52.310;17.016;2022-12-18T17:25:33;77.90;;;31.63;;
65071;SDS011;51663;52.310;17.016;2022-12-18T17:29:00;73.97;;;31.33;;
65071;SDS011;51663;52.310;17.016;2022-12-18T17:32:02;72.10;;;30.97;;
65071;SDS011;51663;52.310;17.016;2022-12-18T17:35:04;79.77;;;33.70;;
65071;SDS011;51663;52.310;17.016;2022-12-18T17:38:08;80.33;;;32.90;;
65071;SDS011;51663;52.310;17.016;2022-12-18T17:41:10;81.97;;;34.23;;
65071;SDS011;51663;52.310;17.016;2022-12-18T17:44:12;83.00;;;34.20;;
65071;SDS011;51663;52.310;17.016;2022-12-18T17:47:15;76.53;;;31.60;;
65071;SDS011;51663;52.310;17.016;2022-12-18T17:50:17;72.50;;;30.30;;
65071;SDS011;51663;52.310;17.016;2022-12-18T17:53:19;72.13;;;31.83;;
65071;SDS011;51663;52.310;17.016;2022-12-18T17:56:22;78.23;;;32.50;;
65071;SDS011;51663;52.310;17.016;2022-12-18T17:59:25;87.37;;;33.80;;
65071;SDS011;51663;52.310;17.016;2022-12-18T18:02:28;80.70;;;33.33;;
65071;SDS011;51663;52.310;17.016;2022-12-18T18:05:30;90.33;;;35.93;;
65071;SDS011;51663;52.310;17.016;2022-12-18T18:08:34;88.60;;;35.17;;
65071;SDS011;51663;52.310;17.016;2022-12-18T18:11:36;89.20;;;35.60;;
65071;SDS011;51663;52.310;17.016;2022-12-18T18:14:59;85.07;;;34.97;;
65071;SDS011;51663;52.310;17.016;2022-12-18T18:18:01;86.50;;;36.00;;
65071;SDS011;51663;52.310;17.016;2022-12-18T18:21:04;86.50;;;34.73;;
65071;SDS011;51663;52.310;17.016;2022-12-18T18:24:08;83.83;;;32.17;;
65071;SDS011;51663;52.310;17.016;2022-12-18T18:27:12;91.80;;;35.20;;
65071;SDS011;51663;52.310;17.016;2022-12-18T18:30:14;94.13;;;36.17;;
65071;SDS011;51663;52.310;17.016;2022-12-18T18:33:16;79.17;;;32.77;;
65071;SDS011;51663;52.310;17.016;2022-12-18T18:36:18;91.60;;;36.83;;
65071;SDS011;51663;52.310;17.016;2022-12-18T18:39:22;91.57;;;36.33;;
65071;SDS011;51663;52.310;17.016;2022-12-18T18:42:24;89.00;;;35.60;;
65071;SDS011;51663;52.310;17.016;2022-12-18T18:45:27;90.80;;;36.73;;
65071;SDS011;51663;52.310;17.016;2022-12-18T18:48:30;87.17;;;34.77;;
65071;SDS011;51663;52.310;17.016;2022-12-18T18:51:36;93.87;;;36.07;;
65071;SDS011;51663;52.310;17.016;2022-12-18T18:54:38;92.20;;;36.00;;
65071;SDS011;51663;52.310;17.016;2022-12-18T18:58:00;91.47;;;33.83;;
65071;SDS011;51663;52.310;17.016;2022-12-18T19:01:05;92.33;;;35.33;;
65071;SDS011;51663;52.310;17.016;2022-12-18T19:04:10;93.40;;;35.83;;
65071;SDS011;51663;52.310;17.016;2022-12-18T19:07:12;88.10;;;35.73;;
65071;SDS011;51663;52.310;17.016;2022-12-18T19:10:31;82.27;;;33.30;;
65071;SDS011;51663;52.310;17.016;2022-12-18T19:13:33;89.23;;;32.87;;
65071;SDS011;51663;52.310;17.016;2022-12-18T19:16:38;84.20;;;33.73;;
65071;SDS011;51663;52.310;17.016;2022-12-18T19:19:43;88.10;;;33.80;;
65071;SDS011;51663;52.310;17.016;2022-12-18T19:22:47;81.63;;;32.27;;
65071;SDS011;51663;52.310;17.016;2022-12-18T19:26:00;92.30;;;33.67;;
65071;SDS011;51663;52.310;17.016;2022-12-18T19:29:27;86.60;;;32.03;;
65071;SDS011;51663;52.310;17.016;2022-12-18T19:32:29;80.77;;;31.50;;
65071;SDS011;51663;52.310;17.016;2022-12-18T19:35:32;92.50;;;35.37;;